Time;durP1;ratioP1;P1;durP2;ratioP2;P2;SDS_P1;SDS_P2;PMS_P1;PMS_P2;Temp;Humidity;BMP_temperature;BMP_pressure;BME280_temperature;BME280_humidity;BME280_pressure;Samples;Min_cycle;Max_cycle;Signal;HPM_P1;HPM_P2
2022/08/11 00:00:56;;;;;;;5.33;3.23;;;21.30;94.10;;;;;;5105506;28;20399;-82
2022/08/11 00:03:44;;;;;;;4.70;3.67;;;21.20;94.40;;;;;;5121125;28;20480;-81
2022/08/11 00:06:35;;;;;;;16.03;5.80;;;21.30;94.70;;;;;;5119349;28;20399;-80
2022/08/11 00:09:31;;;;;;;4.53;4.13;;;21.20;96.40;;;;;;5103971;28;20413;-79
2022/08/11 00:12:17;;;;;;;5.10;3.30;;;21.20;95.70;;;;;;5119211;28;20402;-78
2022/08/11 00:15:01;;;;;;;4.20;3.88;;;21.30;95.70;;;;;;5117333;28;20406;-79
2022/08/11 00:17:46;;;;;;;7.90;3.30;;;21.20;95.30;;;;;;5119658;28;20604;-81
2022/08/11 00:20:33;;;;;;;3.73;3.47;;;21.10;98.00;;;;;;5119765;28;20414;-79
2022/08/11 00:23:18;;;;;;;5.13;3.80;;;21.10;98.70;;;;;;5119486;28;20976;-80
2022/08/11 00:26:06;;;;;;;6.67;4.47;;;21.10;96.10;;;;;;5119907;28;20386;-79
2022/08/11 00:28:51;;;;;;;3.90;3.60;;;21.10;97.30;;;;;;5120297;28;20491;-81
2022/08/11 00:31:37;;;;;;;4.50;4.10;;;21.10;98.80;;;;;;5119601;28;20395;-79
2022/08/11 00:34:27;;;;;;;4.97;4.27;;;21.00;96.50;;;;;;5118319;28;20390;-81
2022/08/11 00:37:19;;;;;;;4.23;3.93;;;21.00;97.30;;;;;;5118458;28;20518;-80
2022/08/11 00:40:09;;;;;;;4.17;3.87;;;21.00;96.70;;;;;;5119275;28;20430;-81
2022/08/11 00:43:09;;;;;;;5.10;3.60;;;20.80;96.30;;;;;;5118016;28;20502;-80
2022/08/11 00:46:11;;;;;;;4.23;3.93;;;20.80;96.60;;;;;;5118561;28;20407;-80
2022/08/11 00:49:12;;;;;;;3.80;3.50;;;20.80;97.50;;;;;;5119095;28;20379;-79
2022/08/11 00:52:16;;;;;;;4.13;3.73;;;20.80;97.80;;;;;;5120682;28;20397;-80
2022/08/11 00:55:26;;;;;;;5.70;4.37;;;20.80;98.70;;;;;;5122397;28;20933;-79
2022/08/11 00:58:37;;;;;;;7.10;3.57;;;20.70;99.90;;;;;;5123960;28;20467;-81
2022/08/11 01:01:52;;;;;;;4.00;3.70;;;20.60;99.60;;;;;;5123261;28;20429;-80
2022/08/11 01:05:06;;;;;;;4.10;3.80;;;20.60;99.90;;;;;;5113076;28;20528;-82
2022/08/11 01:08:17;;;;;;;4.50;3.77;;;20.50;99.90;;;;;;5123208;28;20382;-80
2022/08/11 01:11:25;;;;;;;5.60;4.07;;;20.50;99.90;;;;;;5122857;28;20487;-81
2022/08/11 01:14:28;;;;;;;4.10;3.07;;;20.50;99.90;;;;;;5122891;28;20392;-80
2022/08/11 01:17:52;;;;;;;4.10;3.80;;;20.40;99.90;;;;;;5122543;28;20750;-81
2022/08/11 01:21:08;;;;;;;4.70;4.00;;;20.40;99.80;;;;;;5122659;28;20384;-81
2022/08/11 01:24:32;;;;;;;3.60;3.30;;;20.30;99.90;;;;;;5123083;28;20533;-81
2022/08/11 01:27:34;;;;;;;7.40;4.33;;;20.40;99.90;;;;;;5123993;28;20415;-81
2022/08/11 01:30:55;;;;;;;6.17;4.70;;;20.30;99.90;;;;;;5123593;28;20394;-81
2022/08/11 01:34:19;;;;;;;3.67;3.37;;;20.30;99.90;;;;;;5123402;28;20395;-81
2022/08/11 01:37:39;;;;;;;7.63;3.33;;;20.20;99.90;;;;;;5110659;28;20403;-81
2022/08/11 01:40:42;;;;;;;5.23;4.73;;;20.10;99.20;;;;;;5122685;28;20856;-81
2022/08/11 01:51:00;;;;;;;8.33;3.90;;;20.20;99.90;;;;;;5122449;28;20433;-81
2022/08/11 01:53:54;;;;;;;4.13;3.77;;;20.20;99.90;;;;;;5111965;28;20431;-81
2022/08/11 01:57:06;;;;;;;4.03;3.70;;;20.10;99.90;;;;;;5126434;28;20446;-79
2022/08/11 02:00:02;;;;;;;4.70;4.20;;;20.10;99.90;;;;;;5125715;28;20464;-82
2022/08/11 02:03:17;;;;;;;6.23;4.30;;;20.10;99.90;;;;;;5121951;28;20817;-82
2022/08/11 02:09:40;;;;;;;3.83;3.27;;;20.00;99.90;;;;;;5125183;28;20416;-78
2022/08/11 02:12:45;;;;;;;4.37;4.07;;;19.90;99.90;;;;;;5128848;28;20441;-79
2022/08/11 02:15:49;;;;;;;5.00;4.50;;;20.00;99.90;;;;;;5127230;28;20392;-81
2022/08/11 02:25:01;;;;;;;8.83;4.87;;;20.00;99.90;;;;;;5121150;28;20425;-81
2022/08/11 02:27:54;;;;;;;3.80;3.50;;;19.90;99.90;;;;;;5121306;28;20379;-81
2022/08/11 02:33:21;;;;;;;5.00;4.50;;;19.90;99.90;;;;;;5121042;28;20433;-81
2022/08/11 02:34:20;;;;;;;4.50;4.10;;;19.90;99.90;;;;;;5121590;28;20383;-81
2022/08/11 02:37:32;;;;;;;4.63;4.30;;;19.70;99.90;;;;;;5120338;28;20391;-81
2022/08/11 02:40:34;;;;;;;7.07;4.40;;;19.70;99.90;;;;;;5120983;28;20517;-80
2022/08/11 02:43:46;;;;;;;5.03;4.50;;;19.50;99.90;;;;;;5105224;28;20504;-81
2022/08/11 02:46:50;;;;;;;8.13;5.37;;;19.50;99.90;;;;;;5120570;28;20474;-81
2022/08/11 02:49:54;;;;;;;4.70;3.90;;;19.50;99.90;;;;;;5120226;28;20407;-80
2022/08/11 02:53:05;;;;;;;4.83;4.20;;;19.50;99.90;;;;;;5120512;28;20407;-81
2022/08/11 02:56:02;;;;;;;5.70;5.00;;;19.40;99.90;;;;;;5119724;28;20458;-81
2022/08/11 03:02:31;;;;;;;4.63;4.20;;;19.30;99.90;;;;;;5119516;28;20404;-80
2022/08/11 03:05:28;;;;;;;4.20;3.80;;;19.30;99.90;;;;;;5106700;28;20399;-80
2022/08/11 03:08:28;;;;;;;4.90;3.80;;;19.20;99.90;;;;;;5104562;28;20419;-79
2022/08/11 03:18:26;;;;;;;4.53;4.23;;;19.20;99.90;;;;;;5117566;28;20429;-81
2022/08/11 03:21:31;;;;;;;8.23;5.30;;;19.30;99.90;;;;;;5118413;28;20387;-81
2022/08/11 03:24:40;;;;;;;4.93;4.53;;;19.20;99.90;;;;;;5117804;28;20418;-80
2022/08/11 03:27:47;;;;;;;5.10;4.70;;;19.20;99.90;;;;;;5117984;28;20440;-80
2022/08/11 03:30:44;;;;;;;5.00;4.60;;;19.20;99.90;;;;;;5101581;28;20413;-80
2022/08/11 03:36:58;;;;;;;5.23;4.83;;;19.20;99.90;;;;;;5117270;28;20395;-79
2022/08/11 03:40:02;;;;;;;4.40;4.07;;;19.10;99.90;;;;;;5107095;28;20449;-79
2022/08/11 03:43:02;;;;;;;4.37;4.07;;;19.20;99.90;;;;;;5117531;28;20482;-79
2022/08/11 03:46:11;;;;;;;4.87;4.47;;;19.20;99.90;;;;;;5116747;28;20427;-79
2022/08/11 03:49:11;;;;;;;5.10;4.60;;;19.20;99.90;;;;;;5118248;27;20391;-79
2022/08/11 03:52:21;;;;;;;4.27;3.97;;;19.20;99.90;;;;;;5100365;28;20419;-81
2022/08/11 03:55:27;;;;;;;4.67;4.23;;;19.20;99.90;;;;;;5117023;27;20986;-80
2022/08/11 03:58:45;;;;;;;6.07;4.27;;;19.10;99.90;;;;;;5096625;28;20437;-80
2022/08/11 04:01:53;;;;;;;6.63;5.43;;;19.10;99.90;;;;;;5095714;28;20395;-79
2022/08/11 04:05:13;;;;;;;4.73;4.33;;;19.10;99.90;;;;;;5117471;28;20410;-80
2022/08/11 04:08:24;;;;;;;5.10;4.70;;;19.10;99.90;;;;;;5117122;28;20379;-80
2022/08/11 04:11:33;;;;;;;5.23;4.83;;;19.00;99.90;;;;;;5116997;28;20387;-79
2022/08/11 04:18:04;;;;;;;5.77;5.27;;;18.90;99.90;;;;;;5116597;28;20399;-80
2022/08/11 04:21:11;;;;;;;4.87;4.13;;;19.00;99.90;;;;;;5116206;28;20391;-81
2022/08/11 04:24:23;;;;;;;4.93;4.50;;;19.00;99.90;;;;;;5115876;28;20450;-79
2022/08/11 04:27:35;;;;;;;5.23;4.83;;;19.00;99.90;;;;;;5103579;28;20387;-79
2022/08/11 04:30:54;;;;;;;6.17;5.67;;;19.10;99.90;;;;;;5053934;28;20526;-79
2022/08/11 04:33:53;;;;;;;10.10;5.40;;;19.10;99.90;;;;;;5041629;28;20438;-79
2022/08/11 04:40:42;;;;;;;6.37;5.50;;;19.10;99.90;;;;;;5044542;28;20984;-79
2022/08/11 04:44:04;;;;;;;5.20;4.70;;;19.10;99.90;;;;;;5042484;28;20481;-79
2022/08/11 05:03:44;;;;;;;5.43;4.97;;;19.10;99.90;;;;;;5100712;28;21054;-81
2022/08/11 05:07:00;;;;;;;5.57;5.00;;;19.10;99.90;;;;;;5101695;28;20443;-81
2022/08/11 05:10:09;;;;;;;7.83;4.90;;;19.20;99.90;;;;;;5120301;28;20534;-80
2022/08/11 05:34:51;;;;;;;5.80;5.27;;;19.50;99.90;;;;;;5107368;28;20492;-80
2022/08/11 05:58:55;;;;;;;5.47;4.80;;;20.20;99.90;;;;;;5108635;28;20779;-80
2022/08/11 06:01:42;;;;;;;6.03;5.10;;;20.20;99.90;;;;;;5111000;28;20792;-81
2022/08/11 06:04:28;;;;;;;17.73;6.00;;;20.20;99.90;;;;;;5096900;28;20923;-82
2022/08/11 06:07:16;;;;;;;4.70;4.30;;;20.40;99.90;;;;;;5108924;28;20430;-81
2022/08/11 06:10:01;;;;;;;5.77;5.03;;;20.50;99.90;;;;;;5107896;28;20434;-81
2022/08/11 06:12:52;;;;;;;8.33;5.57;;;20.50;99.90;;;;;;5107760;28;20477;-80
2022/08/11 06:15:48;;;;;;;7.67;5.57;;;20.60;99.90;;;;;;5102577;28;20918;-81
2022/08/11 06:18:35;;;;;;;13.33;4.33;;;20.70;99.90;;;;;;5095229;28;20458;-81
2022/08/11 06:21:20;;;;;;;5.40;4.87;;;20.80;99.90;;;;;;5106637;28;20443;-81
2022/08/11 06:24:12;;;;;;;10.37;5.47;;;20.90;99.90;;;;;;5104353;27;20502;-81
2022/08/11 06:26:57;;;;;;;5.67;4.07;;;20.90;99.90;;;;;;5097143;28;20439;-79
2022/08/11 06:29:49;;;;;;;5.83;4.80;;;21.00;99.90;;;;;;5084651;28;20435;-81
2022/08/11 06:32:35;;;;;;;6.90;4.30;;;21.00;99.90;;;;;;5109097;27;20466;-81
2022/08/11 06:35:28;;;;;;;7.97;4.63;;;21.00;99.90;;;;;;5103960;28;20963;-81
2022/08/11 06:38:30;;;;;;;8.97;5.00;;;21.10;99.90;;;;;;5106291;28;20430;-82
2022/08/11 06:41:29;;;;;;;11.33;5.50;;;21.20;99.90;;;;;;5114233;28;20771;-81
2022/08/11 06:44:26;;;;;;;7.10;5.40;;;21.30;99.90;;;;;;5099471;28;20762;-82
2022/08/11 06:47:14;;;;;;;12.70;5.83;;;21.40;99.90;;;;;;5097592;27;20489;-81
2022/08/11 06:52:59;;;;;;;7.93;5.10;;;21.50;99.90;;;;;;5107852;27;21028;-82
2022/08/11 07:02:15;;;;;;;9.30;4.83;;;21.60;99.90;;;;;;5100893;27;20473;-80
2022/08/11 07:05:07;;;;;;;8.33;4.03;;;21.70;99.90;;;;;;5104261;27;20682;-81
2022/08/11 07:15:40;;;;;;;6.43;4.77;;;21.80;99.90;;;;;;5102908;27;20490;-81
2022/08/11 07:29:52;;;;;;;9.03;4.23;;;22.50;99.90;;;;;;5094778;27;21436;-82
2022/08/11 07:32:48;;;;;;;5.13;4.23;;;22.60;99.90;;;;;;5102363;27;20428;-81
2022/08/11 07:35:42;;;;;;;5.83;4.33;;;22.60;99.90;;;;;;5107359;27;20952;-81
2022/08/11 07:38:43;;;;;;;7.53;3.97;;;22.80;99.90;;;;;;5078793;28;20995;-79
2022/08/11 07:41:32;;;;;;;6.20;4.37;;;22.90;99.90;;;;;;5099690;27;20509;-79
2022/08/11 07:44:17;;;;;;;6.60;4.63;;;23.00;99.90;;;;;;5099703;28;20516;-81
2022/08/11 07:53:03;;;;;;;5.00;3.63;;;23.40;99.00;;;;;;5097517;28;20439;-79
2022/08/11 07:55:49;;;;;;;5.27;4.13;;;23.40;99.80;;;;;;5083265;28;20550;-80
2022/08/11 08:19:47;;;;;;;18.50;17.00;;;24.40;91.70;;;;;;5102884;28;20444;-79
2022/08/11 08:22:33;;;;;;;3.40;3.20;;;24.40;91.00;;;;;;5105463;28;20483;-79
2022/08/11 08:25:18;;;;;;;4.97;3.77;;;24.50;91.10;;;;;;5093484;28;20538;-81
2022/08/11 08:28:06;;;;;;;6.33;3.70;;;24.60;90.60;;;;;;5085350;28;20837;-80
2022/08/11 08:30:51;;;;;;;3.47;2.63;;;24.70;90.00;;;;;;5086524;28;20426;-80
2022/08/11 08:33:58;;;;;;;3.73;3.40;;;24.70;87.40;;;;;;5107724;28;20457;-82
2022/08/11 08:36:48;;;;;;;7.00;4.03;;;24.60;83.50;;;;;;5047546;28;21097;-81
2022/08/11 08:39:36;;;;;;;3.40;2.60;;;24.60;87.40;;;;;;5048473;28;20537;-81
2022/08/11 08:42:29;;;;;;;3.50;3.13;;;24.80;83.10;;;;;;5055287;28;20485;-79
2022/08/11 08:45:16;;;;;;;3.80;2.97;;;24.80;83.10;;;;;;5055693;28;20492;-82
2022/08/11 08:48:05;;;;;;;3.50;3.20;;;24.90;84.10;;;;;;5062038;28;20880;-80
2022/08/11 08:54:09;;;;;;;4.00;3.20;;;24.90;79.80;;;;;;5049721;28;21040;-77
2022/08/11 08:57:01;;;;;;;3.33;3.03;;;25.10;82.30;;;;;;5040080;28;20459;-81
2022/08/11 08:59:50;;;;;;;11.20;3.20;;;25.20;78.50;;;;;;5007330;28;20555;-81
2022/08/11 09:02:35;;;;;;;10.13;7.87;;;25.20;80.30;;;;;;4969221;28;20829;-81
2022/08/11 09:05:26;;;;;;;3.97;3.13;;;25.10;77.30;;;;;;4956369;28;20504;-82
2022/08/11 09:08:22;;;;;;;3.50;3.20;;;25.30;77.10;;;;;;4958092;28;20449;-81
2022/08/11 09:14:14;;;;;;;4.73;3.40;;;25.10;77.30;;;;;;4873632;29;20590;-79
2022/08/11 09:16:58;;;;;;;4.83;3.33;;;25.20;75.90;;;;;;4884007;29;20473;-79
2022/08/11 09:19:46;;;;;;;2.93;2.70;;;25.10;73.00;;;;;;4887787;29;20501;-78
2022/08/11 09:28:42;;;;;;;4.13;3.40;;;25.60;72.70;;;;;;4898391;29;20469;-80
2022/08/11 09:31:32;;;;;;;2.80;2.60;;;25.80;73.30;;;;;;4915354;29;20443;-81
2022/08/11 09:34:19;;;;;;;5.20;3.10;;;25.90;72.40;;;;;;4935253;29;20533;-78
2022/08/11 09:46:23;;;;;;;3.60;3.30;;;26.10;72.30;;;;;;4959789;28;20433;-81
2022/08/11 09:49:08;;;;;;;4.07;3.30;;;26.20;65.90;;;;;;4960390;28;20441;-82
2022/08/11 09:51:53;;;;;;;3.83;2.83;;;26.10;64.40;;;;;;4968588;28;20448;-81
2022/08/11 09:54:43;;;;;;;4.90;3.30;;;26.20;63.70;;;;;;4975919;28;20476;-80
2022/08/11 10:00:56;;;;;;;2.40;2.20;;;26.70;63.40;;;;;;4944947;28;20483;-81
2022/08/11 10:03:43;;;;;;;7.53;2.90;;;26.40;60.50;;;;;;4939860;28;20517;-79
2022/08/11 10:09:50;;;;;;;3.20;2.93;;;26.60;59.40;;;;;;4944923;28;20486;-80
2022/08/11 10:12:42;;;;;;;5.90;2.70;;;27.00;60.10;;;;;;4975512;28;20448;-80
2022/08/11 10:15:50;;;;;;;3.40;2.53;;;26.80;59.20;;;;;;4980750;28;21255;-82
2022/08/11 10:18:41;;;;;;;3.00;2.70;;;26.60;58.50;;;;;;4957822;28;20441;-79
2022/08/11 10:21:43;;;;;;;2.70;2.50;;;26.90;58.70;;;;;;4968908;28;20441;-80
2022/08/11 10:27:31;;;;;;;4.20;3.80;;;27.10;59.50;;;;;;4984717;28;20434;-80
2022/08/11 10:36:18;;;;;;;5.00;3.27;;;27.10;59.20;;;;;;5021573;28;20472;-79
2022/08/11 10:39:04;;;;;;;4.60;3.00;;;27.20;59.50;;;;;;5036423;28;20456;-80
2022/08/11 10:44:53;;;;;;;3.50;2.53;;;27.20;57.70;;;;;;5003422;28;20469;-81
2022/08/11 10:47:43;;;;;;;2.90;2.70;;;27.60;57.50;;;;;;5008781;28;20473;-80
2022/08/11 10:59:43;;;;;;;3.17;2.97;;;27.40;56.70;;;;;;4961647;28;20655;-81
2022/08/11 11:02:29;;;;;;;3.97;3.33;;;27.40;55.90;;;;;;4971048;28;21030;-82
2022/08/11 11:05:27;;;;;;;3.43;3.13;;;27.70;56.60;;;;;;5002096;28;20523;-81
2022/08/11 11:20:57;;;;;;;4.43;3.40;;;28.30;54.50;;;;;;5006302;28;20987;-80
2022/08/11 11:24:01;;;;;;;4.00;3.30;;;28.80;53.60;;;;;;4989389;28;20478;-80
2022/08/11 11:26:59;;;;;;;3.80;3.37;;;28.90;54.20;;;;;;4972655;28;21066;-79
2022/08/11 11:30:07;;;;;;;3.13;2.90;;;28.40;54.00;;;;;;4958200;28;20456;-79
2022/08/11 11:33:10;;;;;;;4.90;3.20;;;28.40;56.10;;;;;;4964919;28;20461;-79
2022/08/11 11:36:15;;;;;;;3.10;2.90;;;29.20;53.80;;;;;;4998731;28;20447;-80
2022/08/11 11:39:00;;;;;;;3.83;3.50;;;29.30;54.30;;;;;;5007896;28;20479;-79
2022/08/11 11:41:45;;;;;;;3.38;3.08;;;29.10;54.40;;;;;;4999248;28;20602;-82
2022/08/11 11:44:30;;;;;;;3.45;3.13;;;29.60;52.20;;;;;;4999398;28;20246;-81
2022/08/11 11:47:18;;;;;;;2.78;2.50;;;29.80;52.00;;;;;;4987240;28;20620;-80
2022/08/11 11:50:05;;;;;;;4.15;3.58;;;30.50;52.00;;;;;;5031389;28;20202;-82
2022/08/11 11:52:52;;;;;;;4.05;3.75;;;30.90;50.80;;;;;;5059696;28;20301;-82
2022/08/11 11:55:37;;;;;;;2.50;2.30;;;31.20;49.60;;;;;;5072011;28;20201;-83
2022/08/11 12:01:24;;;;;;;5.07;3.22;;;31.60;48.40;;;;;;5103470;28;20211;-81
2022/08/11 12:04:10;;;;;;;2.67;2.47;;;30.80;51.20;;;;;;5092633;27;20207;-83
2022/08/11 12:08:08;;;;;;;2.72;2.53;;;31.60;47.70;;;;;;5084231;28;20184;-82
2022/08/11 12:10:01;;;;;;;4.28;2.60;;;30.60;48.80;;;;;;5095821;28;20610;-80
2022/08/11 12:15:41;;;;;;;3.05;2.75;;;30.20;48.00;;;;;;5108526;28;20229;-81
2022/08/11 12:18:26;;;;;;;3.33;3.03;;;29.90;48.70;;;;;;5094629;28;20202;-82
2022/08/11 12:21:14;;;;;;;3.15;2.92;;;30.30;49.50;;;;;;5108808;28;20184;-82
2022/08/11 12:30:05;;;;;;;2.85;2.65;;;30.20;47.10;;;;;;5098010;28;20216;-83
2022/08/11 12:32:50;;;;;;;3.17;2.95;;;30.10;50.00;;;;;;5106879;28;20289;-82
2022/08/11 12:35:35;;;;;;;2.92;2.72;;;30.50;50.20;;;;;;5106898;28;20526;-82
2022/08/11 12:38:22;;;;;;;4.68;2.53;;;32.20;47.30;;;;;;5106347;28;20680;-82
2022/08/11 12:47:01;;;;;;;3.10;2.83;;;31.80;49.80;;;;;;5089046;28;20245;-83
2022/08/11 12:52:53;;;;;;;5.18;2.65;;;31.50;45.00;;;;;;5103263;27;20180;-82
2022/08/11 12:58:44;;;;;;;3.20;2.90;;;32.20;46.20;;;;;;5112070;28;20245;-81
2022/08/11 13:07:32;;;;;;;3.10;2.90;;;31.20;45.70;;;;;;5103907;27;20359;-81
2022/08/11 13:13:21;;;;;;;2.85;2.45;;;30.90;46.20;;;;;;5100263;27;20204;-81
2022/08/11 13:16:06;;;;;;;6.88;3.45;;;30.40;46.90;;;;;;5090263;28;20274;-79
2022/08/11 13:18:52;;;;;;;2.67;2.47;;;30.90;47.40;;;;;;5107393;27;20287;-80
2022/08/11 13:21:36;;;;;;;2.78;2.58;;;31.30;46.10;;;;;;5109419;27;20229;-81
2022/08/11 13:24:21;;;;;;;3.45;3.00;;;31.50;46.10;;;;;;5106246;27;20276;-82
2022/08/11 13:27:06;;;;;;;3.58;3.28;;;31.00;46.20;;;;;;5110497;28;20306;-81
2022/08/11 13:31:09;;;;;;;2.90;2.70;;;30.80;47.70;;;;;;5096250;28;20195;-81
2022/08/11 13:32:56;;;;;;;8.23;2.97;;;30.30;47.70;;;;;;5114570;27;20651;-81
2022/08/11 13:35:42;;;;;;;7.00;3.25;;;30.90;47.50;;;;;;5106471;28;20231;-79
2022/08/11 13:38:27;;;;;;;3.80;2.85;;;30.70;47.50;;;;;;5089677;28;20223;-81
2022/08/11 13:41:43;;;;;;;3.28;2.97;;;31.30;47.60;;;;;;5111022;28;20258;-81
2022/08/11 13:44:17;;;;;;;3.22;2.42;;;31.70;46.70;;;;;;5112466;27;20334;-82
2022/08/11 13:47:04;;;;;;;3.72;3.00;;;33.20;46.80;;;;;;5096915;27;20234;-81
2022/08/11 13:49:50;;;;;;;3.55;2.55;;;33.90;46.20;;;;;;5101122;28;20751;-81
2022/08/11 13:52:38;;;;;;;3.10;2.90;;;32.00;44.60;;;;;;5114109;27;20671;-80
2022/08/11 13:55:23;;;;;;;3.55;2.60;;;32.20;44.60;;;;;;5111517;27;20239;-81
2022/08/11 13:58:10;;;;;;;3.72;3.45;;;32.50;46.70;;;;;;5103386;28;20581;-81
2022/08/11 14:00:55;;;;;;;2.95;2.65;;;32.30;46.90;;;;;;5105768;28;20307;-81
2022/08/11 14:03:42;;;;;;;3.28;2.97;;;32.30;44.90;;;;;;5089088;28;20204;-81
2022/08/11 14:06:26;;;;;;;3.75;2.70;;;32.00;46.60;;;;;;5106000;27;20211;-80
2022/08/11 14:09:14;;;;;;;2.63;2.42;;;32.90;44.50;;;;;;5100589;27;20243;-82
2022/08/11 14:15:09;;;;;;;6.07;3.92;;;33.80;41.80;;;;;;5097547;27;20276;-82
2022/08/11 14:18:00;;;;;;;3.00;2.70;;;33.20;40.90;;;;;;5101855;28;20248;-82
2022/08/11 14:23:54;;;;;;;2.40;2.20;;;33.10;41.70;;;;;;5108090;27;20192;-82
2022/08/11 14:26:42;;;;;;;2.92;2.72;;;33.00;40.20;;;;;;5103410;28;20227;-82
2022/08/11 14:29:28;;;;;;;3.17;2.97;;;33.30;41.90;;;;;;5101973;28;20751;-79
2022/08/11 14:32:13;;;;;;;3.90;2.83;;;33.00;40.90;;;;;;5099699;28;20200;-79
2022/08/11 14:34:58;;;;;;;3.03;2.83;;;31.70;45.00;;;;;;5104420;28;20235;-82
2022/08/11 14:37:43;;;;;;;5.45;3.00;;;31.40;44.80;;;;;;5100150;28;20212;-79
2022/08/11 14:49:35;;;;;;;4.00;3.70;;;32.00;43.40;;;;;;5097985;28;20198;-80
2022/08/11 14:52:20;;;;;;;4.82;2.60;;;30.90;43.20;;;;;;5113030;27;20533;-83
2022/08/11 14:58:14;;;;;;;4.00;3.05;;;31.90;44.50;;;;;;5103723;28;20189;-82
2022/08/11 15:01:01;;;;;;;3.13;2.78;;;32.20;42.90;;;;;;5104523;28;20657;-81
2022/08/11 15:03:45;;;;;;;2.80;2.60;;;32.10;43.10;;;;;;5086631;28;20821;-80
2022/08/11 15:06:32;;;;;;;2.75;2.55;;;32.30;43.40;;;;;;5087485;28;20231;-81
2022/08/11 15:09:17;;;;;;;4.03;2.78;;;32.10;43.10;;;;;;5108637;27;20506;-82
2022/08/11 15:12:08;;;;;;;2.65;2.40;;;31.40;43.40;;;;;;5109147;28;20168;-80
2022/08/11 15:17:53;;;;;;;2.35;2.15;;;31.20;43.50;;;;;;5110135;27;20227;-81
2022/08/11 15:39:06;;;;;;;6.20;3.65;;;32.00;43.20;;;;;;5096018;27;20275;-82
2022/08/11 15:48:26;;;;;;;4.15;2.53;;;32.60;43.90;;;;;;5102503;28;20227;-80
2022/08/11 15:51:21;;;;;;;3.15;2.38;;;32.70;42.60;;;;;;5103326;28;20185;-80
2022/08/11 15:54:10;;;;;;;3.97;3.42;;;32.90;44.20;;;;;;5103180;27;20258;-80
2022/08/11 15:56:57;;;;;;;3.17;2.88;;;31.80;42.00;;;;;;5096128;28;20270;-80
2022/08/11 16:05:46;;;;;;;2.83;2.45;;;31.40;44.00;;;;;;5098657;28;20770;-81
2022/08/11 16:08:33;;;;;;;3.10;2.88;;;31.00;45.40;;;;;;5083554;28;20242;-80
2022/08/11 16:11:19;;;;;;;3.10;2.90;;;31.00;45.50;;;;;;5098761;28;20197;-81
2022/08/11 16:17:04;;;;;;;2.88;2.67;;;31.60;44.00;;;;;;5104278;28;20302;-81
2022/08/11 16:19:52;;;;;;;3.45;3.15;;;31.40;43.20;;;;;;5098084;28;20182;-81
2022/08/11 16:22:42;;;;;;;3.10;2.90;;;31.10;43.40;;;;;;5109447;28;20253;-81
2022/08/11 16:25:28;;;;;;;4.20;3.03;;;31.00;45.00;;;;;;5086104;28;20267;-82
2022/08/11 16:28:14;;;;;;;2.80;2.60;;;31.00;45.90;;;;;;5108440;28;20187;-81
2022/08/11 16:31:00;;;;;;;3.40;2.80;;;31.20;45.80;;;;;;5108053;28;20185;-82
2022/08/11 16:33:46;;;;;;;3.03;2.83;;;31.40;44.40;;;;;;5090885;28;20203;-80
2022/08/11 16:39:35;;;;;;;3.03;2.80;;;31.10;45.30;;;;;;5126386;28;20215;-79
2022/08/11 16:48:40;;;;;;;5.68;3.83;;;31.20;46.40;;;;;;5072746;28;20245;-80
2022/08/11 16:51:24;;;;;;;6.55;3.20;;;31.00;45.10;;;;;;5068434;28;20273;-82
2022/08/11 16:54:09;;;;;;;5.30;3.25;;;30.80;47.00;;;;;;5046187;28;20206;-81
2022/08/11 16:56:54;;;;;;;4.20;2.70;;;30.70;46.70;;;;;;5074294;28;20644;-80
2022/08/11 16:59:39;;;;;;;3.40;3.10;;;30.60;47.60;;;;;;5055492;28;20182;-81
2022/08/11 17:14:40;;;;;;;5.40;2.90;;;30.20;47.40;;;;;;5059949;28;20453;-82
2022/08/11 17:17:31;;;;;;;2.90;2.70;;;30.30;47.90;;;;;;5062632;28;20448;-81
2022/08/11 17:20:15;;;;;;;4.83;3.00;;;30.20;47.50;;;;;;5061431;28;20541;-82
2022/08/11 17:26:02;;;;;;;5.17;3.70;;;30.40;47.20;;;;;;5057824;28;20512;-81
2022/08/11 17:28:55;;;;;;;3.40;3.20;;;30.20;46.60;;;;;;5065364;28;20435;-83
2022/08/11 17:37:52;;;;;;;4.80;3.70;;;29.80;47.80;;;;;;5116572;28;20419;-81
2022/08/11 17:40:39;;;;;;;4.73;3.87;;;29.70;48.80;;;;;;5087654;28;20527;-81
2022/08/11 17:49:25;;;;;;;3.47;3.17;;;29.60;48.20;;;;;;5098350;28;20441;-81
2022/08/11 18:01:12;;;;;;;7.93;3.53;;;29.20;48.70;;;;;;5101103;28;20407;-81
2022/08/11 18:03:58;;;;;;;4.83;4.03;;;29.10;50.90;;;;;;5086851;28;20473;-81
2022/08/11 18:06:44;;;;;;;3.37;3.17;;;28.90;49.40;;;;;;5083848;28;20866;-82
